Terminal Aerodrome Forecast
Issued by NWS

Home | Current Version | Previous Version | Text Only | Print | Product List | Glossary On
Versions: 1 2 3 4 5 6 7 8 9 10 11 12 13 14 15 16 17 18 19 20
000
FTUS43 KAPX 302029 AAA
TAFMBL
TAF AMD
KMBL 302029Z 3020/0118 34009KT P6SM VCSH BKN005 OVC025
     FM010000 34005KT P6SM VCSH SCT006 OVC012
     FM010300 34004KT 2SM BR OVC004
     FM011500 33009KT P6SM BKN030
      AMD LTD TO CLD VIS AND WIND=

USA.gov is the U.S. government's official web portal to all federal, state and local government web resources and services.